createdAt,value
2019-03-17T00:01:40.003Z,42.50
2019-03-17T00:04:06.067Z,42.40
2019-03-17T00:06:32.131Z,42.20
2019-03-17T00:08:58.227Z,42.00
2019-03-17T00:11:24.292Z,41.80
2019-03-17T00:13:50.351Z,41.70
2019-03-17T00:16:16.424Z,41.50
2019-03-17T00:18:42.495Z,41.60
2019-03-17T00:21:08.567Z,41.50
2019-03-17T00:23:34.641Z,42.10
2019-03-17T00:26:00.700Z,41.50
2019-03-17T00:28:26.781Z,41.50
2019-03-17T00:30:52.830Z,41.50
2019-03-17T00:33:18.907Z,41.50
2019-03-17T00:35:44.963Z,41.30
2019-03-17T00:38:11.119Z,41.40
2019-03-17T00:40:37.238Z,41.30
2019-03-17T00:43:03.295Z,41.30
2019-03-17T00:45:29.367Z,41.30
2019-03-17T00:47:55.431Z,41.20
2019-03-17T00:50:21.500Z,41.40
2019-03-17T00:52:47.561Z,41.50
2019-03-17T00:55:13.623Z,41.40
2019-03-17T00:57:39.757Z,41.50
2019-03-17T01:00:09.713Z,41.50
2019-03-17T01:02:35.791Z,41.30
2019-03-17T01:05:02.156Z,41.30
2019-03-17T01:07:28.221Z,41.20
2019-03-17T01:09:54.264Z,41.10
2019-03-17T01:12:20.374Z,41.20
2019-03-17T01:14:46.426Z,41.10
2019-03-17T01:17:12.503Z,41.20
2019-03-17T01:19:38.571Z,41.50
2019-03-17T01:22:04.631Z,41.50
2019-03-17T01:24:30.708Z,42.00
2019-03-17T01:26:56.758Z,42.10
2019-03-17T01:29:22.836Z,42.00
2019-03-17T01:31:48.903Z,42.20
2019-03-17T01:34:14.986Z,42.60
2019-03-17T01:36:41.051Z,42.10
2019-03-17T01:39:07.131Z,41.70
2019-03-17T01:41:33.214Z,41.60
2019-03-17T01:43:59.376Z,41.60
2019-03-17T01:46:25.428Z,41.20
2019-03-17T01:48:51.480Z,41.20
2019-03-17T01:51:17.564Z,41.30
2019-03-17T01:53:43.606Z,41.20
2019-03-17T01:56:09.683Z,41.00
2019-03-17T01:58:35.735Z,40.20
2019-03-17T02:01:01.838Z,39.70
2019-03-17T02:03:27.907Z,39.60
2019-03-17T02:05:53.972Z,39.20
2019-03-17T02:08:20.023Z,39.40
2019-03-17T02:10:46.287Z,39.60
2019-03-17T02:13:12.474Z,39.80
2019-03-17T02:15:38.552Z,39.50
2019-03-17T02:18:04.627Z,39.40
2019-03-17T02:20:30.674Z,39.70
2019-03-17T02:22:56.754Z,40.80
2019-03-17T02:25:22.803Z,43.20
2019-03-17T02:27:48.879Z,44.50
2019-03-17T02:30:15.068Z,45.60
2019-03-17T02:32:41.210Z,46.20
2019-03-17T02:35:07.287Z,47.10
2019-03-17T02:37:34.438Z,48.30
2019-03-17T02:40:00.615Z,48.20
2019-03-17T02:42:26.864Z,48.00
2019-03-17T02:44:52.934Z,48.30
2019-03-17T02:47:19.001Z,49.00
2019-03-17T02:49:45.068Z,48.70
2019-03-17T02:52:11.150Z,48.50
2019-03-17T02:54:37.214Z,48.70
2019-03-17T02:57:03.322Z,49.20
2019-03-17T02:59:29.454Z,49.50
2019-03-17T03:01:55.616Z,48.90
2019-03-17T03:04:21.671Z,48.80
2019-03-17T03:06:47.731Z,48.60
2019-03-17T03:09:13.799Z,48.10
2019-03-17T03:11:39.878Z,48.30
2019-03-17T03:14:05.948Z,47.70
2019-03-17T03:16:32.040Z,47.20
2019-03-17T03:18:58.096Z,46.90
2019-03-17T03:21:24.173Z,47.10
2019-03-17T03:23:50.306Z,46.90
2019-03-17T03:26:16.372Z,47.30
2019-03-17T03:28:42.418Z,48.30
2019-03-17T03:31:08.493Z,49.30
2019-03-17T03:33:34.547Z,50.50
2019-03-17T03:36:10.678Z,51.10
2019-03-17T03:38:28.591Z,50.00
2019-03-17T03:40:54.767Z,50.00
2019-03-17T03:43:20.848Z,49.10
2019-03-17T03:45:46.984Z,48.40
2019-03-17T03:48:13.049Z,48.20
2019-03-17T03:50:39.102Z,48.60
2019-03-17T03:53:05.170Z,48.20
2019-03-17T03:55:31.234Z,47.80
2019-03-17T03:57:57.336Z,46.60
2019-03-17T04:00:23.409Z,46.30
2019-03-17T04:02:49.463Z,45.70
2019-03-17T04:05:15.522Z,45.70
2019-03-17T04:07:42.016Z,45.80
2019-03-17T04:10:08.991Z,45.90
2019-03-17T04:12:35.071Z,46.20
2019-03-17T04:15:01.141Z,46.00
2019-03-17T04:17:27.193Z,46.40
2019-03-17T04:19:53.264Z,46.00
2019-03-17T04:22:19.316Z,46.10
2019-03-17T04:24:45.404Z,46.30
2019-03-17T04:27:11.552Z,46.20
2019-03-17T04:29:37.624Z,46.30
2019-03-17T04:32:03.691Z,46.50
2019-03-17T04:34:29.756Z,46.80
2019-03-17T04:36:55.826Z,47.00
2019-03-17T04:39:22.005Z,47.10
2019-03-17T04:41:48.089Z,47.30
2019-03-17T04:44:20.983Z,47.50
2019-03-17T04:46:42.138Z,47.50
2019-03-17T04:49:08.300Z,47.90
2019-03-17T04:51:34.357Z,47.90
2019-03-17T04:54:00.412Z,48.60
2019-03-17T04:56:26.470Z,48.50
2019-03-17T04:58:52.540Z,48.50
2019-03-17T05:01:18.599Z,48.60
2019-03-17T05:03:44.661Z,48.10
2019-03-17T05:06:10.751Z,48.00
2019-03-17T05:08:36.805Z,47.70
2019-03-17T05:11:02.864Z,47.20
2019-03-17T05:13:28.941Z,47.30
2019-03-17T05:15:54.986Z,46.80
2019-03-17T05:18:21.057Z,46.80
2019-03-17T05:20:47.108Z,46.40
2019-03-17T05:23:13.177Z,45.70
2019-03-17T05:25:39.265Z,45.30
2019-03-17T05:28:05.314Z,44.90
2019-03-17T05:30:31.416Z,45.20
2019-03-17T05:32:57.479Z,44.40
2019-03-17T05:35:23.539Z,44.20
2019-03-17T05:37:49.604Z,43.40
2019-03-17T05:40:15.662Z,44.10
2019-03-17T05:42:41.733Z,42.90
2019-03-17T05:45:07.792Z,42.90
2019-03-17T05:47:33.856Z,42.50
2019-03-17T05:49:59.924Z,41.70
2019-03-17T05:52:26.000Z,41.10
2019-03-17T05:54:52.051Z,41.70
2019-03-17T05:57:18.163Z,41.60
2019-03-17T05:59:44.223Z,41.30
2019-03-17T06:02:10.291Z,40.90
2019-03-17T06:04:36.391Z,40.40
2019-03-17T06:07:02.453Z,40.10
2019-03-17T06:09:28.525Z,39.80
2019-03-17T06:11:54.587Z,39.70
2019-03-17T06:14:20.659Z,39.50
2019-03-17T06:16:46.725Z,39.00
2019-03-17T06:19:12.786Z,38.80
2019-03-17T06:21:38.886Z,38.30
2019-03-17T06:24:05.051Z,38.30
2019-03-17T06:26:31.099Z,37.50
2019-03-17T06:28:57.179Z,37.30
2019-03-17T06:31:23.239Z,36.80
2019-03-17T06:33:49.283Z,36.60
2019-03-17T06:36:15.364Z,36.60
2019-03-17T06:38:41.418Z,36.10
2019-03-17T06:41:07.514Z,36.20
2019-03-17T06:43:33.572Z,35.90
2019-03-17T06:45:59.652Z,35.60
2019-03-17T06:48:25.737Z,35.50
2019-03-17T06:50:51.811Z,35.60
2019-03-17T06:53:17.871Z,35.40
2019-03-17T06:55:43.997Z,35.50
2019-03-17T06:58:10.115Z,35.40
2019-03-17T07:00:36.190Z,35.50
2019-03-17T07:03:02.280Z,35.60
2019-03-17T07:05:28.378Z,35.90
2019-03-17T07:07:54.456Z,35.90
2019-03-17T07:10:20.512Z,35.90
2019-03-17T07:12:46.872Z,36.30
2019-03-17T07:15:12.946Z,36.30
2019-03-17T07:17:39.073Z,36.10
2019-03-17T07:20:08.429Z,36.20
2019-03-17T07:22:34.512Z,35.90
2019-03-17T07:25:00.559Z,35.70
2019-03-17T07:27:46.528Z,35.30
2019-03-17T07:30:13.829Z,35.00
2019-03-17T07:32:39.997Z,34.60
2019-03-17T07:35:06.065Z,34.40
2019-03-17T07:37:32.153Z,34.10
2019-03-17T07:39:58.207Z,33.90
2019-03-17T07:42:24.392Z,33.30
2019-03-17T07:44:50.454Z,33.10
2019-03-17T07:47:16.511Z,33.00
2019-03-17T07:49:42.605Z,32.60
2019-03-17T07:52:08.699Z,32.20
2019-03-17T07:54:35.254Z,32.20
2019-03-17T07:57:01.472Z,31.80
2019-03-17T07:59:27.572Z,31.80
2019-03-17T08:01:53.655Z,31.30
2019-03-17T08:04:19.730Z,30.90
2019-03-17T08:06:47.280Z,30.60
2019-03-17T08:09:13.355Z,30.00
2019-03-17T08:11:39.506Z,30.40
2019-03-17T08:14:05.682Z,30.10
2019-03-17T08:16:31.957Z,30.00
2019-03-17T08:18:58.048Z,29.60
2019-03-17T08:21:24.119Z,29.90
2019-03-17T08:23:50.203Z,29.80
2019-03-17T08:26:16.401Z,30.40
2019-03-17T08:28:42.466Z,30.10
2019-03-17T08:31:08.541Z,31.30
2019-03-17T08:33:34.672Z,30.50
2019-03-17T08:36:00.746Z,30.30
2019-03-17T08:38:26.846Z,30.80
2019-03-17T08:40:52.901Z,30.80
2019-03-17T08:43:19.083Z,30.60
2019-03-17T08:45:45.141Z,29.70
2019-03-17T08:48:11.191Z,28.80
2019-03-17T08:50:37.268Z,28.90
2019-03-17T08:53:03.368Z,29.10
2019-03-17T08:55:29.433Z,28.60
2019-03-17T08:57:55.504Z,28.60
2019-03-17T09:00:21.607Z,28.30
2019-03-17T09:02:47.708Z,27.80
2019-03-17T09:05:13.855Z,27.70
2019-03-17T09:07:39.985Z,27.90
2019-03-17T09:10:12.515Z,27.70
2019-03-17T09:12:38.580Z,28.40
2019-03-17T09:15:05.093Z,27.40
2019-03-17T09:17:31.227Z,27.10
2019-03-17T09:19:57.311Z,27.50
2019-03-17T09:22:23.463Z,26.80
2019-03-17T09:24:49.531Z,26.70
2019-03-17T09:27:15.602Z,26.60
2019-03-17T09:29:41.725Z,26.20
2019-03-17T09:32:07.935Z,25.70
2019-03-17T09:34:33.987Z,25.70
2019-03-17T09:37:00.060Z,25.70
2019-03-17T09:39:26.120Z,26.10
2019-03-17T09:41:52.223Z,25.50
2019-03-17T09:44:18.369Z,24.60
2019-03-17T09:46:44.443Z,25.30
2019-03-17T09:49:10.629Z,24.70
2019-03-17T09:51:36.694Z,25.00
2019-03-17T09:54:02.742Z,25.10
2019-03-17T09:56:28.825Z,24.20
2019-03-17T09:58:55.120Z,24.60
2019-03-17T10:01:21.669Z,24.20
2019-03-17T10:03:47.878Z,24.20
2019-03-17T10:06:14.035Z,24.30
2019-03-17T10:08:40.087Z,24.70
2019-03-17T10:11:06.165Z,23.80
2019-03-17T10:13:32.237Z,23.70
2019-03-17T10:15:58.314Z,22.70
2019-03-17T10:18:24.417Z,22.20
2019-03-17T10:20:50.542Z,21.60
2019-03-17T10:23:16.626Z,21.30
2019-03-17T10:25:42.687Z,21.70
2019-03-17T10:28:08.759Z,22.10
2019-03-17T10:30:34.839Z,21.70
2019-03-17T10:33:01.154Z,21.20
2019-03-17T10:35:27.203Z,21.30
2019-03-17T10:37:53.294Z,21.30
2019-03-17T10:40:20.251Z,21.30
2019-03-17T10:42:46.507Z,22.00
2019-03-17T10:45:13.071Z,22.50
2019-03-17T10:47:40.041Z,22.10
2019-03-17T10:50:09.823Z,22.10
2019-03-17T10:52:35.908Z,22.50
2019-03-17T10:55:01.963Z,22.20
2019-03-17T10:57:28.040Z,22.00
2019-03-17T10:59:54.090Z,22.60
2019-03-17T11:02:20.164Z,22.20
2019-03-17T11:04:46.227Z,22.20
2019-03-17T11:07:12.287Z,21.50
2019-03-17T11:09:38.352Z,21.60
2019-03-17T11:12:04.452Z,21.60
2019-03-17T11:14:30.643Z,21.40
2019-03-17T11:16:56.754Z,20.50
2019-03-17T11:19:25.567Z,20.70
2019-03-17T11:21:50.841Z,21.60
2019-03-17T11:24:16.962Z,21.70
2019-03-17T11:26:43.127Z,22.00
2019-03-17T11:29:09.189Z,21.90
2019-03-17T11:31:35.247Z,22.00
2019-03-17T11:34:01.367Z,22.90
2019-03-17T11:36:27.420Z,22.50
2019-03-17T11:38:53.499Z,21.70
2019-03-17T11:41:19.632Z,22.90
2019-03-17T11:43:45.723Z,22.80
2019-03-17T11:46:11.795Z,22.60
2019-03-17T11:48:37.939Z,21.70
2019-03-17T11:51:04.069Z,22.40
2019-03-17T11:53:30.191Z,22.10
2019-03-17T11:55:56.243Z,22.40
2019-03-17T11:58:22.323Z,22.10
2019-03-17T12:00:48.388Z,22.40
2019-03-17T12:03:14.579Z,22.60
2019-03-17T12:05:40.703Z,22.00
2019-03-17T12:08:06.776Z,22.40
2019-03-17T12:10:32.853Z,22.20
2019-03-17T12:12:58.908Z,22.60
2019-03-17T12:15:33.298Z,22.70
2019-03-17T12:17:59.464Z,23.10
2019-03-17T12:20:25.536Z,22.30
2019-03-17T12:22:51.607Z,22.50
2019-03-17T12:25:17.899Z,22.60
2019-03-17T12:27:43.963Z,22.70
2019-03-17T12:30:23.123Z,22.80
2019-03-17T12:32:50.331Z,22.40
2019-03-17T12:35:16.394Z,22.90
2019-03-17T12:37:42.456Z,22.80
2019-03-17T12:40:08.510Z,22.90
2019-03-17T12:42:34.604Z,23.60
2019-03-17T12:45:00.665Z,23.00
2019-03-17T12:47:26.726Z,22.50
2019-03-17T12:49:52.883Z,23.20
2019-03-17T12:52:18.958Z,23.20
2019-03-17T12:54:45.099Z,22.40
2019-03-17T12:57:11.196Z,23.40
2019-03-17T12:59:37.259Z,23.20
2019-03-17T13:02:03.408Z,23.20
2019-03-17T13:04:29.471Z,23.00
2019-03-17T13:06:55.536Z,23.10
2019-03-17T13:09:21.601Z,22.70
2019-03-17T13:11:47.700Z,23.00
2019-03-17T13:14:13.762Z,23.20
2019-03-17T13:16:39.852Z,23.60
2019-03-17T13:19:05.911Z,23.40
2019-03-17T13:21:31.975Z,22.90
2019-03-17T13:23:58.073Z,23.70
2019-03-17T13:26:24.134Z,24.10
2019-03-17T13:28:55.330Z,24.50
2019-03-17T13:31:21.392Z,24.80
2019-03-17T13:33:48.543Z,24.20
2019-03-17T13:36:14.624Z,24.70
2019-03-17T13:38:40.702Z,24.70
2019-03-17T13:41:06.750Z,24.90
2019-03-17T13:43:32.829Z,24.60
2019-03-17T13:45:58.912Z,24.40
2019-03-17T13:48:24.991Z,23.80
2019-03-17T13:50:51.043Z,23.00
2019-03-17T13:53:17.107Z,22.50
2019-03-17T13:55:43.215Z,22.00
2019-03-17T13:58:11.179Z,21.10
2019-03-17T14:00:37.267Z,22.70
2019-03-17T14:03:03.325Z,21.80
2019-03-17T14:05:29.394Z,22.30
2019-03-17T14:07:55.475Z,23.10
2019-03-17T14:10:21.571Z,22.60
2019-03-17T14:12:47.627Z,22.40
2019-03-17T14:15:14.151Z,21.20
2019-03-17T14:17:40.299Z,21.60
2019-03-17T14:20:13.025Z,21.70
2019-03-17T14:22:39.103Z,21.80
2019-03-17T14:25:14.968Z,23.00
2019-03-17T14:27:41.047Z,23.80
2019-03-17T14:30:15.044Z,23.60
2019-03-17T14:32:40.965Z,22.70
2019-03-17T14:35:07.140Z,23.60
2019-03-17T14:37:33.220Z,24.60
2019-03-17T14:39:59.301Z,24.80
2019-03-17T14:42:25.355Z,25.00
2019-03-17T14:44:51.423Z,25.20
2019-03-17T14:47:17.483Z,25.40
2019-03-17T14:49:43.565Z,24.90
2019-03-17T14:52:09.615Z,25.50
2019-03-17T14:54:35.779Z,25.50
2019-03-17T14:57:01.836Z,25.70
2019-03-17T14:59:27.908Z,26.40
2019-03-17T15:01:53.985Z,26.90
2019-03-17T15:04:20.062Z,26.50
2019-03-17T15:06:46.128Z,25.70
2019-03-17T15:09:12.196Z,26.30
2019-03-17T15:11:38.271Z,27.30
2019-03-17T15:14:04.334Z,27.30
2019-03-17T15:16:30.510Z,27.90
2019-03-17T15:18:56.718Z,28.00
2019-03-17T15:21:22.779Z,27.60
2019-03-17T15:23:48.909Z,28.30
2019-03-17T15:26:15.032Z,28.30
2019-03-17T15:28:41.104Z,28.70
2019-03-17T15:31:12.115Z,29.70
2019-03-17T15:33:35.260Z,29.80
2019-03-17T15:36:01.346Z,29.70
2019-03-17T15:38:27.670Z,30.10
2019-03-17T15:40:53.859Z,31.20
2019-03-17T15:43:19.923Z,32.50
2019-03-17T15:45:45.996Z,32.50
2019-03-17T15:50:36.060Z,33.00
2019-03-17T15:53:04.310Z,32.80
2019-03-17T15:55:32.542Z,34.00
2019-03-17T15:58:00.791Z,34.50
2019-03-17T16:00:32.975Z,35.10
2019-03-17T16:03:01.212Z,35.40
2019-03-17T16:05:29.463Z,35.60
2019-03-17T16:07:57.718Z,35.80
2019-03-17T16:10:27.271Z,36.50
2019-03-17T16:12:55.575Z,36.80
2019-03-17T16:15:23.828Z,37.30
2019-03-17T16:17:52.059Z,38.00
2019-03-17T16:20:21.141Z,37.90
2019-03-17T16:22:49.393Z,38.50
2019-03-17T16:25:20.891Z,38.60
2019-03-17T16:27:49.158Z,39.40
2019-03-17T16:30:22.814Z,39.30
2019-03-17T16:32:51.063Z,39.40
2019-03-17T16:35:19.328Z,40.10
2019-03-17T16:37:47.568Z,40.20
2019-03-17T16:40:23.724Z,40.40
2019-03-17T16:42:53.762Z,40.60
2019-03-17T16:45:22.032Z,41.80
2019-03-17T16:47:50.414Z,46.40
2019-03-17T16:50:19.775Z,50.90
2019-03-17T16:52:48.031Z,55.50
2019-03-17T16:55:16.270Z,57.70
2019-03-17T16:57:44.559Z,58.90
2019-03-17T17:00:19.362Z,59.90
2019-03-17T17:02:48.341Z,61.20
2019-03-17T17:05:17.672Z,64.10
2019-03-17T17:07:45.898Z,65.60
2019-03-17T17:10:23.214Z,66.90
2019-03-17T17:12:51.496Z,67.50
2019-03-17T17:15:24.285Z,68.20
2019-03-17T17:17:52.524Z,72.00
2019-03-17T17:20:29.160Z,72.70
2019-03-17T17:22:57.487Z,75.20
2019-03-17T17:25:25.739Z,75.80
2019-03-17T17:27:53.965Z,78.10
2019-03-17T17:30:22.253Z,77.70
2019-03-17T17:32:50.487Z,79.20
2019-03-17T17:35:18.821Z,78.70
2019-03-17T17:37:47.141Z,80.10
2019-03-17T17:40:19.091Z,81.20
2019-03-17T17:42:47.480Z,80.40
2019-03-17T17:45:18.675Z,81.30
2019-03-17T17:47:47.436Z,81.60
2019-03-17T17:50:22.516Z,84.40
2019-03-17T17:52:51.530Z,85.40
2019-03-17T17:55:19.837Z,84.90
2019-03-17T17:57:48.636Z,85.90
2019-03-17T18:00:23.321Z,86.60
2019-03-17T18:02:51.785Z,85.50
2019-03-17T18:05:20.488Z,87.50
2019-03-17T18:07:49.378Z,87.40
2019-03-17T18:10:18.900Z,88.80
2019-03-17T18:12:47.828Z,88.30
2019-03-17T18:15:24.248Z,87.10
2019-03-17T18:17:53.233Z,87.60
2019-03-17T18:20:22.024Z,88.00
2019-03-17T18:22:50.809Z,87.10
2019-03-17T18:25:22.221Z,87.50
2019-03-17T18:27:51.353Z,89.10
2019-03-17T18:30:24.214Z,88.30
2019-03-17T18:32:53.237Z,88.60
2019-03-17T18:35:22.991Z,89.00
2019-03-17T18:37:52.565Z,90.30
2019-03-17T18:40:22.814Z,89.40
2019-03-17T18:42:52.719Z,89.40
2019-03-17T18:45:25.833Z,90.10
2019-03-17T18:47:57.476Z,88.60
2019-03-17T18:50:26.785Z,88.60
2019-03-17T18:52:56.067Z,89.80
2019-03-17T18:55:25.919Z,88.90
2019-03-17T18:57:55.893Z,89.10
2019-03-17T19:00:27.002Z,90.00
2019-03-17T19:02:56.558Z,89.60
2019-03-17T19:05:26.349Z,90.10
2019-03-17T19:07:55.968Z,90.60
2019-03-17T19:10:25.733Z,90.50
2019-03-17T19:12:55.572Z,90.60
2019-03-17T19:15:25.426Z,90.80
2019-03-17T19:17:56.544Z,90.40
2019-03-17T19:20:26.279Z,90.10
2019-03-17T19:22:56.478Z,90.30
2019-03-17T19:25:26.622Z,90.20
2019-03-17T19:27:56.544Z,90.80
2019-03-17T19:30:26.330Z,90.30
2019-03-17T19:32:56.288Z,90.70
2019-03-17T19:35:26.152Z,90.50
2019-03-17T19:37:56.182Z,90.60
2019-03-17T19:40:26.429Z,90.30
2019-03-17T19:42:59.939Z,90.60
2019-03-17T19:45:27.553Z,90.70
2019-03-17T19:47:57.604Z,90.70
2019-03-17T19:50:27.292Z,90.70
2019-03-17T19:52:57.114Z,90.80
2019-03-17T19:55:27.031Z,90.80
2019-03-17T19:57:57.116Z,90.10
2019-03-17T20:00:27.016Z,90.30
2019-03-17T20:02:56.901Z,90.50
2019-03-17T20:05:26.725Z,90.30
2019-03-17T20:07:56.692Z,90.50
2019-03-17T20:10:35.581Z,89.70
2019-03-17T20:13:11.355Z,89.60
2019-03-17T20:15:36.965Z,90.10
2019-03-17T20:18:06.716Z,90.30
2019-03-17T20:20:36.909Z,89.70
2019-03-17T20:23:06.673Z,90.10
2019-03-17T20:25:36.464Z,90.00
2019-03-17T20:28:06.973Z,90.20
2019-03-17T20:30:37.515Z,90.50
2019-03-17T20:33:07.245Z,90.00
2019-03-17T20:35:37.286Z,90.70
2019-03-17T20:38:07.232Z,90.40
2019-03-17T20:40:37.172Z,90.70
2019-03-17T20:43:18.600Z,90.60
2019-03-17T20:45:38.101Z,90.40
2019-03-17T20:48:08.238Z,90.40
2019-03-17T20:50:37.922Z,90.00
2019-03-17T20:53:07.780Z,90.10
2019-03-17T20:55:37.444Z,90.30
2019-03-17T20:58:07.261Z,90.40
2019-03-17T21:00:37.188Z,89.60
2019-03-17T21:03:06.888Z,90.30
2019-03-17T21:05:36.830Z,90.10
2019-03-17T21:08:06.393Z,89.40
2019-03-17T21:10:36.311Z,90.00
2019-03-17T21:13:06.264Z,88.60
2019-03-17T21:15:36.324Z,88.30
2019-03-17T21:18:05.880Z,88.80
2019-03-17T21:20:34.894Z,89.40
2019-03-17T21:23:03.818Z,89.30
2019-03-17T21:25:32.776Z,89.90
2019-03-17T21:28:01.674Z,90.00
2019-03-17T21:30:35.037Z,88.70
2019-03-17T21:33:03.586Z,89.10
2019-03-17T21:35:31.931Z,89.90
2019-03-17T21:38:00.586Z,90.20
2019-03-17T21:40:28.940Z,89.80
2019-03-17T21:42:57.267Z,89.10
2019-03-17T21:45:27.490Z,89.90
2019-03-17T21:47:55.476Z,89.50
2019-03-17T21:50:23.715Z,89.50
2019-03-17T21:52:51.962Z,88.70
2019-03-17T21:55:20.197Z,89.20
2019-03-17T21:57:48.422Z,89.00
2019-03-17T22:00:17.711Z,88.70
2019-03-17T22:02:45.947Z,89.10
2019-03-17T22:05:14.358Z,88.50
2019-03-17T22:07:49.523Z,89.30
2019-03-17T22:10:17.968Z,88.10
2019-03-17T22:12:46.333Z,87.60
2019-03-17T22:15:15.514Z,88.50
2019-03-17T22:17:43.741Z,88.00
2019-03-17T22:20:12.969Z,87.80
2019-03-17T22:22:41.232Z,88.00
2019-03-17T22:25:10.470Z,88.90
2019-03-17T22:27:38.723Z,89.30
2019-03-17T22:30:18.373Z,89.60
2019-03-17T22:32:46.652Z,90.30
2019-03-17T22:35:14.925Z,89.70
2019-03-17T22:37:43.319Z,90.50
2019-03-17T22:40:13.654Z,90.20
2019-03-17T22:42:41.900Z,90.70
2019-03-17T22:45:12.227Z,90.70
2019-03-17T22:47:40.465Z,90.50
2019-03-17T22:50:16.583Z,90.40
2019-03-17T22:52:44.821Z,90.80
2019-03-17T22:55:13.062Z,90.50
2019-03-17T22:57:41.286Z,90.40
2019-03-17T23:00:15.167Z,90.10
2019-03-17T23:02:43.395Z,90.20
2019-03-17T23:05:11.622Z,89.60
2019-03-17T23:07:39.863Z,89.40
2019-03-17T23:10:10.426Z,85.90
2019-03-17T23:12:38.662Z,90.40
2019-03-17T23:15:09.128Z,90.40
2019-03-17T23:17:37.366Z,90.90
2019-03-17T23:20:08.438Z,90.50
2019-03-17T23:22:36.678Z,90.40
2019-03-17T23:25:06.143Z,90.80
2019-03-17T23:27:34.387Z,90.30
2019-03-17T23:30:02.621Z,90.00
2019-03-17T23:32:30.844Z,90.20
2019-03-17T23:34:59.082Z,90.30
2019-03-17T23:37:27.327Z,90.40
2019-03-17T23:39:55.551Z,90.80
2019-03-17T23:42:23.782Z,90.50
2019-03-17T23:44:52.052Z,90.20
2019-03-17T23:47:20.281Z,89.10
2019-03-17T23:49:48.508Z,89.40
2019-03-17T23:52:16.761Z,89.30
2019-03-17T23:54:44.971Z,90.00
2019-03-17T23:57:13.242Z,90.00
2019-03-17T23:59:41.467Z,90.00
